Time;durP1;ratioP1;P1;durP2;ratioP2;P2;SDS_P1;SDS_P2;PMS_P1;PMS_P2;Temp;Humidity;BMP_temperature;BMP_pressure;BME280_temperature;BME280_humidity;BME280_pressure;Samples;Min_cycle;Max_cycle;Signal;HPM_P1;HPM_P2
2023/03/15 00:00:11;;;;;;;12.70;6.57;;;;;;;;;;6214221;23;20032;-63
2023/03/15 00:02:38;;;;;;;13.68;6.80;;;;;;;;;;6214572;23;20499;-62
2023/03/15 00:05:04;;;;;;;11.23;6.32;;;;;;;;;;6214571;23;20055;-63
2023/03/15 00:07:30;;;;;;;11.32;6.15;;;;;;;;;;6214572;23;20090;-76
2023/03/15 00:09:57;;;;;;;13.07;6.35;;;;;;;;;;6214301;23;20017;-62
2023/03/15 00:12:23;;;;;;;12.80;6.90;;;;;;;;;;6214571;23;20325;-62
2023/03/15 00:14:49;;;;;;;11.35;6.50;;;;;;;;;;6214639;23;20000;-62
2023/03/15 00:17:15;;;;;;;12.88;7.35;;;;;;;;;;6214581;23;20000;-63
2023/03/15 00:19:41;;;;;;;15.07;7.25;;;;;;;;;;6214131;23;20004;-62
2023/03/15 00:22:08;;;;;;;13.05;6.97;;;;;;;;;;6214200;23;20054;-60
2023/03/15 00:24:34;;;;;;;11.50;6.93;;;;;;;;;;6214284;23;20007;-63
2023/03/15 00:27:00;;;;;;;10.80;6.43;;;;;;;;;;6214672;23;20005;-74
2023/03/15 00:29:26;;;;;;;11.18;6.55;;;;;;;;;;6214475;23;20017;-78
2023/03/15 00:31:52;;;;;;;10.98;6.32;;;;;;;;;;6214342;23;20004;-62
2023/03/15 00:34:22;;;;;;;13.52;6.82;;;;;;;;;;6214496;23;20009;-60
2023/03/15 00:36:48;;;;;;;10.93;5.80;;;;;;;;;;6214556;23;20000;-76
2023/03/15 00:39:15;;;;;;;13.88;6.60;;;;;;;;;;6214438;23;20001;-62
2023/03/15 00:41:44;;;;;;;14.20;6.75;;;;;;;;;;6214293;23;20321;-59
2023/03/15 00:44:10;;;;;;;11.20;6.30;;;;;;;;;;6214133;23;20027;-64
2023/03/15 00:46:36;;;;;;;12.45;6.68;;;;;;;;;;6214189;23;20380;-60
2023/03/15 00:49:03;;;;;;;13.18;6.53;;;;;;;;;;6214073;23;20463;-62
2023/03/15 00:51:29;;;;;;;12.32;6.53;;;;;;;;;;6214355;23;20091;-62
2023/03/15 00:53:56;;;;;;;14.95;6.55;;;;;;;;;;6213144;23;20004;-62
2023/03/15 00:56:24;;;;;;;12.65;6.82;;;;;;;;;;6214294;23;20421;-78
2023/03/15 00:58:53;;;;;;;14.52;6.97;;;;;;;;;;6214298;23;20001;-60
2023/03/15 01:01:21;;;;;;;17.15;6.78;;;;;;;;;;6214072;23;20440;-60
2023/03/15 01:03:47;;;;;;;12.75;7.13;;;;;;;;;;6213957;23;20484;-63
2023/03/15 01:06:20;;;;;;;14.25;7.40;;;;;;;;;;6213641;23;20009;-64
2023/03/15 01:08:46;;;;;;;16.55;7.53;;;;;;;;;;6213914;23;20001;-61
2023/03/15 01:11:14;;;;;;;15.77;7.57;;;;;;;;;;6213856;23;20012;-61
2023/03/15 01:13:40;;;;;;;14.80;7.40;;;;;;;;;;6213775;23;20495;-67
2023/03/15 01:16:06;;;;;;;15.40;7.68;;;;;;;;;;6213877;23;20009;-61
2023/03/15 01:18:32;;;;;;;15.20;7.80;;;;;;;;;;6213941;23;20325;-72
2023/03/15 01:20:58;;;;;;;16.38;8.73;;;;;;;;;;6213783;23;20415;-64
2023/03/15 01:23:24;;;;;;;18.20;8.90;;;;;;;;;;6213470;23;20072;-70
2023/03/15 01:25:50;;;;;;;16.05;8.95;;;;;;;;;;6213805;23;20042;-61
2023/03/15 01:28:17;;;;;;;13.43;8.30;;;;;;;;;;6213991;23;20001;-62
2023/03/15 01:30:52;;;;;;;17.13;9.00;;;;;;;;;;6213237;23;20095;-63
2023/03/15 01:33:18;;;;;;;16.88;9.10;;;;;;;;;;6213537;23;20001;-61
2023/03/15 01:35:44;;;;;;;19.17;9.82;;;;;;;;;;6213895;23;20027;-61
2023/03/15 01:38:11;;;;;;;17.10;9.43;;;;;;;;;;6213924;23;20008;-61
2023/03/15 01:40:41;;;;;;;17.35;9.10;;;;;;;;;;6213557;23;20004;-62
2023/03/15 01:43:07;;;;;;;17.30;9.30;;;;;;;;;;6213755;23;19997;-61
2023/03/15 01:45:52;;;;;;;20.05;9.65;;;;;;;;;;6213376;23;20439;-63
2023/03/15 01:48:18;;;;;;;17.52;9.85;;;;;;;;;;6213550;23;20004;-62
2023/03/15 01:50:44;;;;;;;17.08;9.63;;;;;;;;;;6213478;23;20333;-64
2023/03/15 01:53:11;;;;;;;17.98;9.35;;;;;;;;;;6212991;23;20047;-62
2023/03/15 01:55:37;;;;;;;15.85;9.85;;;;;;;;;;6213649;23;20001;-67
2023/03/15 01:58:06;;;;;;;16.05;9.80;;;;;;;;;;6213261;23;20269;-62
2023/03/15 02:00:32;;;;;;;17.42;9.55;;;;;;;;;;6212873;23;20066;-71
2023/03/15 02:03:18;;;;;;;21.02;9.63;;;;;;;;;;6213162;23;20008;-62
2023/03/15 02:05:53;;;;;;;16.33;9.48;;;;;;;;;;6212784;23;20036;-62
2023/03/15 02:08:20;;;;;;;19.15;9.60;;;;;;;;;;6213650;23;20008;-62
2023/03/15 02:10:49;;;;;;;19.67;10.00;;;;;;;;;;6213439;23;20013;-69
2023/03/15 02:13:17;;;;;;;19.30;9.77;;;;;;;;;;6213334;23;20000;-78
2023/03/15 02:15:45;;;;;;;18.70;9.80;;;;;;;;;;6213278;23;20005;-62
2023/03/15 02:18:14;;;;;;;19.88;9.95;;;;;;;;;;6213699;23;20009;-62
2023/03/15 02:20:45;;;;;;;17.50;9.80;;;;;;;;;;6213090;23;20445;-62
2023/03/15 02:23:13;;;;;;;17.13;10.25;;;;;;;;;;6212694;23;20420;-62
2023/03/15 02:25:45;;;;;;;20.77;10.93;;;;;;;;;;6212818;23;20413;-62
2023/03/15 02:28:12;;;;;;;20.83;10.32;;;;;;;;;;6212914;23;20020;-62
2023/03/15 02:30:39;;;;;;;20.67;10.70;;;;;;;;;;6212748;23;20096;-62
2023/03/15 02:33:08;;;;;;;21.40;10.75;;;;;;;;;;6213426;23;20379;-62
2023/03/15 02:35:34;;;;;;;20.33;10.63;;;;;;;;;;6213191;23;20083;-77
2023/03/15 02:38:01;;;;;;;18.55;10.60;;;;;;;;;;6213281;23;20035;-62
2023/03/15 02:40:28;;;;;;;19.05;10.35;;;;;;;;;;6212951;23;20009;-62
2023/03/15 02:43:02;;;;;;;18.05;10.18;;;;;;;;;;6212709;23;20058;-62
2023/03/15 02:45:28;;;;;;;17.40;10.45;;;;;;;;;;6213144;23;20424;-65
2023/03/15 02:47:54;;;;;;;20.40;11.48;;;;;;;;;;6213102;23;19997;-62
2023/03/15 02:50:21;;;;;;;19.15;11.05;;;;;;;;;;6213268;23;20108;-63
2023/03/15 02:52:47;;;;;;;20.15;10.68;;;;;;;;;;6213018;23;20015;-66
2023/03/15 02:55:13;;;;;;;17.85;10.95;;;;;;;;;;6212976;23;20036;-77
2023/03/15 02:57:39;;;;;;;18.55;10.88;;;;;;;;;;6213156;23;20024;-62
2023/03/15 03:00:10;;;;;;;17.95;10.90;;;;;;;;;;6212975;23;20083;-75
2023/03/15 03:02:36;;;;;;;18.43;11.20;;;;;;;;;;6215324;23;20012;-76
2023/03/15 03:05:02;;;;;;;19.17;11.15;;;;;;;;;;6212796;23;20009;-62
2023/03/15 03:07:28;;;;;;;18.85;11.70;;;;;;;;;;6213397;23;20005;-62
2023/03/15 03:09:54;;;;;;;22.63;11.25;;;;;;;;;;6212733;23;20044;-62
2023/03/15 03:12:20;;;;;;;20.55;11.50;;;;;;;;;;6213021;23;20075;-62
2023/03/15 03:14:46;;;;;;;19.83;11.52;;;;;;;;;;6212680;23;20051;-69
2023/03/15 03:17:12;;;;;;;19.17;11.23;;;;;;;;;;6212737;23;20009;-61
2023/03/15 03:19:38;;;;;;;19.10;11.32;;;;;;;;;;6214583;23;20066;-60
2023/03/15 03:22:04;;;;;;;20.77;11.25;;;;;;;;;;6215281;23;20030;-60
2023/03/15 03:24:31;;;;;;;22.50;11.68;;;;;;;;;;6214553;23;20075;-60
2023/03/15 03:26:57;;;;;;;18.48;11.05;;;;;;;;;;6214879;23;20001;-60
2023/03/15 03:29:23;;;;;;;19.00;11.52;;;;;;;;;;6214580;23;20028;-76
2023/03/15 03:31:49;;;;;;;20.85;12.18;;;;;;;;;;6214999;23;20013;-60
2023/03/15 03:34:15;;;;;;;21.95;12.02;;;;;;;;;;6214531;23;20004;-60
2023/03/15 03:36:42;;;;;;;21.92;11.07;;;;;;;;;;6214810;23;20000;-60
2023/03/15 03:39:08;;;;;;;19.90;10.98;;;;;;;;;;6214451;23;20008;-76
2023/03/15 03:41:34;;;;;;;17.27;10.90;;;;;;;;;;6214985;23;20028;-60
2023/03/15 03:44:00;;;;;;;20.30;10.73;;;;;;;;;;6214794;23;20476;-64
2023/03/15 03:46:27;;;;;;;19.38;10.88;;;;;;;;;;6214672;23;20425;-60
2023/03/15 03:48:53;;;;;;;18.60;10.35;;;;;;;;;;6214654;23;20079;-60
2023/03/15 03:51:20;;;;;;;18.40;10.23;;;;;;;;;;6215086;23;20433;-60
2023/03/15 03:53:46;;;;;;;20.00;10.65;;;;;;;;;;6214552;23;20446;-60
2023/03/15 03:56:12;;;;;;;21.70;9.43;;;;;;;;;;6214330;23;20011;-62
2023/03/15 03:58:38;;;;;;;19.13;9.77;;;;;;;;;;6215025;23;20353;-64
2023/03/15 04:01:04;;;;;;;18.17;10.07;;;;;;;;;;6214504;23;20004;-60
2023/03/15 04:03:30;;;;;;;16.33;9.02;;;;;;;;;;6214646;23;20013;-60
2023/03/15 04:05:57;;;;;;;15.45;9.50;;;;;;;;;;6214671;23;20008;-70
2023/03/15 04:08:24;;;;;;;18.90;9.45;;;;;;;;;;6214378;23;20498;-74
2023/03/15 04:10:53;;;;;;;18.80;9.43;;;;;;;;;;6214475;23;20080;-72
2023/03/15 04:13:20;;;;;;;19.20;9.27;;;;;;;;;;6213314;23;20306;-60
2023/03/15 04:15:46;;;;;;;18.52;9.23;;;;;;;;;;6214436;23;20004;-62
2023/03/15 04:18:13;;;;;;;16.13;9.10;;;;;;;;;;6214397;23;20075;-60
2023/03/15 04:20:45;;;;;;;17.20;9.25;;;;;;;;;;6213993;23;20021;-60
2023/03/15 04:23:15;;;;;;;15.75;9.23;;;;;;;;;;6214680;23;20055;-61
2023/03/15 04:25:41;;;;;;;16.98;9.60;;;;;;;;;;6214207;23;20001;-61
2023/03/15 04:28:09;;;;;;;13.27;8.57;;;;;;;;;;6214590;23;20063;-60
2023/03/15 04:30:35;;;;;;;14.55;8.93;;;;;;;;;;6213507;23;20091;-61
2023/03/15 04:33:02;;;;;;;16.25;8.88;;;;;;;;;;6214314;23;20059;-61
2023/03/15 04:35:33;;;;;;;14.70;8.40;;;;;;;;;;6214462;23;20000;-62
2023/03/15 04:37:59;;;;;;;13.85;8.57;;;;;;;;;;6214119;23;20036;-61
2023/03/15 04:40:25;;;;;;;16.65;9.32;;;;;;;;;;6214454;23;20382;-61
2023/03/15 04:42:54;;;;;;;14.57;8.63;;;;;;;;;;6213921;23;20044;-61
2023/03/15 04:45:20;;;;;;;18.27;8.68;;;;;;;;;;6213985;23;20015;-63
2023/03/15 04:47:46;;;;;;;14.18;8.68;;;;;;;;;;6214052;23;20564;-62
2023/03/15 04:50:12;;;;;;;13.10;8.57;;;;;;;;;;6213818;23;20086;-60
2023/03/15 04:52:38;;;;;;;21.83;9.82;;;;;;;;;;6214231;23;20001;-61
2023/03/15 04:55:05;;;;;;;14.38;8.70;;;;;;;;;;6213968;23;20008;-61
2023/03/15 04:57:31;;;;;;;15.63;8.52;;;;;;;;;;6214160;23;20242;-61
2023/03/15 04:59:57;;;;;;;13.43;8.27;;;;;;;;;;6213742;23;20009;-60
2023/03/15 05:02:23;;;;;;;17.92;8.35;;;;;;;;;;6214020;23;20008;-60
2023/03/15 05:04:49;;;;;;;16.67;8.30;;;;;;;;;;6213819;23;20005;-60
2023/03/15 05:07:15;;;;;;;16.83;8.20;;;;;;;;;;6213901;23;20075;-63
2023/03/15 05:09:44;;;;;;;14.13;8.57;;;;;;;;;;6186921;23;20433;-61
2023/03/15 05:12:11;;;;;;;15.48;8.13;;;;;;;;;;6214101;23;20004;-61
2023/03/15 05:14:37;;;;;;;14.57;7.65;;;;;;;;;;6213738;23;20005;-61
2023/03/15 05:17:03;;;;;;;15.20;8.48;;;;;;;;;;6213882;23;20032;-61
2023/03/15 05:19:33;;;;;;;15.00;8.68;;;;;;;;;;6213544;23;20000;-61
2023/03/15 05:21:59;;;;;;;14.13;8.02;;;;;;;;;;6213647;23;20495;-65
2023/03/15 05:24:26;;;;;;;15.95;9.00;;;;;;;;;;6213637;23;20039;-63
2023/03/15 05:26:53;;;;;;;19.75;10.25;;;;;;;;;;6213264;23;20035;-76
2023/03/15 05:29:23;;;;;;;16.48;9.32;;;;;;;;;;6213757;23;20011;-65
2023/03/15 05:31:51;;;;;;;16.25;8.98;;;;;;;;;;6213609;23;20028;-64
2023/03/15 05:34:17;;;;;;;15.23;8.75;;;;;;;;;;6213355;23;20000;-68
2023/03/15 05:36:43;;;;;;;14.73;9.02;;;;;;;;;;6213733;23;20000;-61
2023/03/15 05:39:10;;;;;;;18.50;9.73;;;;;;;;;;6213517;23;20000;-61
2023/03/15 05:41:37;;;;;;;17.42;9.10;;;;;;;;;;6213148;23;20016;-62
2023/03/15 05:44:03;;;;;;;12.95;8.70;;;;;;;;;;6213611;23;20011;-61
2023/03/15 05:46:30;;;;;;;14.55;8.63;;;;;;;;;;6213819;23;19996;-62
2023/03/15 05:48:56;;;;;;;15.35;8.48;;;;;;;;;;6213314;23;20000;-61
2023/03/15 05:51:23;;;;;;;15.30;8.40;;;;;;;;;;6213531;23;20343;-61
2023/03/15 05:53:49;;;;;;;17.48;8.60;;;;;;;;;;6213283;23;20059;-74
2023/03/15 05:56:15;;;;;;;15.45;8.68;;;;;;;;;;6213672;23;20028;-62
2023/03/15 05:58:41;;;;;;;13.52;7.72;;;;;;;;;;6213541;23;20024;-62
2023/03/15 06:01:08;;;;;;;13.60;8.32;;;;;;;;;;6213312;23;20012;-62
2023/03/15 06:03:34;;;;;;;12.55;7.93;;;;;;;;;;6213493;23;20005;-62
2023/03/15 06:06:00;;;;;;;15.68;8.80;;;;;;;;;;6213057;23;20417;-63
2023/03/15 06:08:26;;;;;;;13.80;8.27;;;;;;;;;;6213057;23;20004;-62
2023/03/15 06:10:52;;;;;;;16.23;8.60;;;;;;;;;;6213041;23;20024;-62
2023/03/15 06:13:18;;;;;;;15.73;8.77;;;;;;;;;;6213338;23;20384;-65
2023/03/15 06:15:46;;;;;;;20.20;8.88;;;;;;;;;;6213474;23;20361;-61
2023/03/15 06:18:12;;;;;;;16.05;8.20;;;;;;;;;;6213435;23;20059;-61
2023/03/15 06:20:39;;;;;;;16.75;9.95;;;;;;;;;;6212784;23;20203;-63
2023/03/15 06:23:05;;;;;;;18.67;9.60;;;;;;;;;;6213064;23;20000;-62
2023/03/15 06:25:31;;;;;;;16.40;8.60;;;;;;;;;;6213342;23;20004;-61
2023/03/15 06:27:57;;;;;;;13.90;7.63;;;;;;;;;;6212884;23;20004;-70
2023/03/15 06:30:24;;;;;;;13.93;8.13;;;;;;;;;;6212921;23;20012;-62
2023/03/15 06:32:51;;;;;;;16.20;8.40;;;;;;;;;;6213149;23;20008;-70
2023/03/15 06:35:17;;;;;;;14.35;8.13;;;;;;;;;;6213241;23;20011;-65
2023/03/15 06:37:43;;;;;;;14.27;8.02;;;;;;;;;;6213331;23;20005;-60
2023/03/15 06:40:10;;;;;;;14.88;8.02;;;;;;;;;;6213039;23;20011;-61
2023/03/15 06:42:37;;;;;;;13.50;8.55;;;;;;;;;;6212977;23;20007;-62
2023/03/15 06:45:04;;;;;;;13.68;8.35;;;;;;;;;;6212793;23;20000;-62
2023/03/15 06:47:30;;;;;;;19.08;8.80;;;;;;;;;;6213108;23;19996;-61
2023/03/15 06:49:56;;;;;;;14.73;9.13;;;;;;;;;;6213267;23;20051;-62
2023/03/15 06:52:22;;;;;;;14.80;9.73;;;;;;;;;;6212629;23;20483;-61
2023/03/15 06:54:48;;;;;;;17.50;9.82;;;;;;;;;;6213571;23;20018;-61
2023/03/15 06:57:15;;;;;;;19.60;10.60;;;;;;;;;;6212887;23;20072;-61
2023/03/15 06:59:41;;;;;;;17.17;11.02;;;;;;;;;;6213168;23;20011;-61
2023/03/15 07:02:13;;;;;;;17.80;9.93;;;;;;;;;;6213103;23;20396;-61
2023/03/15 07:04:39;;;;;;;21.58;11.60;;;;;;;;;;6212815;23;20011;-84
2023/03/15 07:07:05;;;;;;;23.52;12.07;;;;;;;;;;6212564;23;19997;-61
2023/03/15 07:09:31;;;;;;;19.50;10.63;;;;;;;;;;6212649;23;20008;-62
2023/03/15 07:11:57;;;;;;;20.70;10.18;;;;;;;;;;6213103;23;20004;-60
2023/03/15 07:14:23;;;;;;;18.85;10.88;;;;;;;;;;6212546;23;19998;-61
2023/03/15 07:16:49;;;;;;;22.70;9.95;;;;;;;;;;6212641;23;19996;-60
2023/03/15 07:19:15;;;;;;;22.55;9.55;;;;;;;;;;6212772;23;20000;-61
2023/03/15 07:21:41;;;;;;;17.85;9.88;;;;;;;;;;6212629;23;20022;-62
2023/03/15 07:24:07;;;;;;;21.08;9.38;;;;;;;;;;6212723;23;20005;-64
2023/03/15 07:26:33;;;;;;;21.40;8.77;;;;;;;;;;6212711;23;20477;-60
2023/03/15 07:28:59;;;;;;;15.43;8.43;;;;;;;;;;6212658;23;20005;-60
2023/03/15 07:31:25;;;;;;;24.05;10.75;;;;;;;;;;6212869;23;20013;-59
2023/03/15 07:33:51;;;;;;;18.92;9.88;;;;;;;;;;6213263;23;20050;-60
2023/03/15 07:36:17;;;;;;;18.50;8.85;;;;;;;;;;6212852;23;20430;-60
2023/03/15 07:38:43;;;;;;;19.38;9.00;;;;;;;;;;6212871;23;20008;-60
2023/03/15 07:41:10;;;;;;;16.80;10.00;;;;;;;;;;6213180;23;20001;-61
2023/03/15 07:43:36;;;;;;;17.30;9.82;;;;;;;;;;6212378;23;20001;-69
2023/03/15 07:46:02;;;;;;;17.90;11.70;;;;;;;;;;6212820;23;20003;-69
2023/03/15 07:48:28;;;;;;;15.90;9.43;;;;;;;;;;6213302;23;20009;-60
2023/03/15 07:50:55;;;;;;;18.42;9.07;;;;;;;;;;6212321;23;20357;-66
2023/03/15 07:53:21;;;;;;;17.13;8.50;;;;;;;;;;6212724;23;20318;-78
2023/03/15 07:55:48;;;;;;;16.27;8.57;;;;;;;;;;6212476;23;20008;-60
2023/03/15 07:58:14;;;;;;;18.17;8.13;;;;;;;;;;6212775;23;20303;-60
2023/03/15 08:00:40;;;;;;;14.95;7.70;;;;;;;;;;6212644;23;20008;-60
2023/03/15 08:03:06;;;;;;;12.65;7.28;;;;;;;;;;6212747;23;20050;-62
2023/03/15 08:05:33;;;;;;;19.00;9.88;;;;;;;;;;6212947;23;20568;-59
2023/03/15 08:07:59;;;;;;;15.30;8.55;;;;;;;;;;6214331;23;20079;-77
2023/03/15 08:10:26;;;;;;;16.48;8.25;;;;;;;;;;6214232;23;20019;-75
2023/03/15 08:12:52;;;;;;;17.55;9.00;;;;;;;;;;6213796;23;20012;-62
2023/03/15 08:15:19;;;;;;;14.50;8.68;;;;;;;;;;6214157;23;20004;-62
2023/03/15 08:17:46;;;;;;;15.73;8.68;;;;;;;;;;6213906;23;20031;-62
2023/03/15 08:20:16;;;;;;;15.90;8.60;;;;;;;;;;6213884;23;20078;-60
2023/03/15 08:22:43;;;;;;;15.32;9.02;;;;;;;;;;6213709;23;20083;-83
2023/03/15 08:25:10;;;;;;;18.50;9.35;;;;;;;;;;6214083;23;20012;-72
2023/03/15 08:27:36;;;;;;;16.98;9.00;;;;;;;;;;6213815;23;20051;-77
2023/03/15 08:30:04;;;;;;;14.25;7.90;;;;;;;;;;6213940;23;20475;-81
2023/03/15 08:32:30;;;;;;;15.27;9.07;;;;;;;;;;6213768;23;20001;-83
2023/03/15 08:34:56;;;;;;;17.80;9.05;;;;;;;;;;6214146;23;20079;-63
2023/03/15 08:37:23;;;;;;;16.48;8.63;;;;;;;;;;6214235;23;20329;-62
2023/03/15 08:39:56;;;;;;;18.17;9.05;;;;;;;;;;6214031;23;20429;-61
2023/03/15 08:42:22;;;;;;;15.35;8.50;;;;;;;;;;6185632;23;20454;-60
2023/03/15 08:44:48;;;;;;;19.50;12.95;;;;;;;;;;6214352;23;20347;-64
2023/03/15 08:47:14;;;;;;;15.30;9.20;;;;;;;;;;6213766;23;20008;-71
2023/03/15 08:49:40;;;;;;;18.70;11.68;;;;;;;;;;6213559;23;20012;-69
2023/03/15 08:52:07;;;;;;;21.27;14.73;;;;;;;;;;6214492;23;20007;-67
2023/03/15 08:54:33;;;;;;;15.00;9.85;;;;;;;;;;6213510;23;20316;-61
2023/03/15 08:56:59;;;;;;;15.30;9.82;;;;;;;;;;6214210;23;20005;-78
2023/03/15 08:59:25;;;;;;;15.85;9.50;;;;;;;;;;6214006;23;20095;-82
2023/03/15 09:01:51;;;;;;;18.80;10.05;;;;;;;;;;6214108;23;20437;-84
2023/03/15 09:04:17;;;;;;;15.63;9.40;;;;;;;;;;6213914;23;20083;-81
2023/03/15 09:06:43;;;;;;;14.45;9.05;;;;;;;;;;6213920;23;20084;-60
2023/03/15 09:09:09;;;;;;;18.52;9.20;;;;;;;;;;6213440;23;20004;-61
2023/03/15 09:11:35;;;;;;;15.30;8.98;;;;;;;;;;6213556;23;20015;-81
2023/03/15 09:14:01;;;;;;;14.13;8.07;;;;;;;;;;6213220;23;20095;-61
2023/03/15 09:16:28;;;;;;;12.73;8.30;;;;;;;;;;6213431;23;20015;-80
2023/03/15 09:18:54;;;;;;;14.90;8.90;;;;;;;;;;6213665;23;20463;-61
2023/03/15 09:21:20;;;;;;;14.02;8.43;;;;;;;;;;6213320;23;20016;-77
2023/03/15 09:23:46;;;;;;;12.10;8.27;;;;;;;;;;6214024;23;20008;-64
2023/03/15 09:26:12;;;;;;;12.98;7.65;;;;;;;;;;6213807;23;20107;-61
2023/03/15 09:28:38;;;;;;;11.07;7.43;;;;;;;;;;6212888;23;20000;-63
2023/03/15 09:31:05;;;;;;;12.05;7.05;;;;;;;;;;6213616;23;20017;-67
2023/03/15 09:33:32;;;;;;;10.18;6.38;;;;;;;;;;6213393;23;20005;-74
2023/03/15 09:35:58;;;;;;;9.88;6.20;;;;;;;;;;6212019;23;20001;-70
2023/03/15 09:38:25;;;;;;;10.70;4.88;;;;;;;;;;6212084;23;20432;-62
2023/03/15 09:40:55;;;;;;;7.82;4.82;;;;;;;;;;6212291;23;20008;-79
2023/03/15 09:43:43;;;;;;;8.75;4.93;;;;;;;;;;6211584;23;20054;-66
2023/03/15 09:46:15;;;;;;;8.18;4.55;;;;;;;;;;6212326;23;20001;-73
2023/03/15 09:48:50;;;;;;;5.70;3.65;;;;;;;;;;6212294;23;20444;-63
2023/03/15 09:51:34;;;;;;;6.63;4.60;;;;;;;;;;6212088;23;20023;-66
2023/03/15 09:54:00;;;;;;;5.40;4.10;;;;;;;;;;6211608;23;20028;-62
2023/03/15 09:56:26;;;;;;;5.95;4.03;;;;;;;;;;6212686;23;20000;-73
2023/03/15 09:58:53;;;;;;;8.35;4.35;;;;;;;;;;6212942;23;20329;-74
2023/03/15 10:01:28;;;;;;;8.77;4.75;;;;;;;;;;6215167;23;20012;-72
2023/03/15 10:03:55;;;;;;;6.18;4.28;;;;;;;;;;6213208;23;20004;-62
2023/03/15 10:06:28;;;;;;;7.07;4.30;;;;;;;;;;6213891;23;20001;-79
2023/03/15 10:09:02;;;;;;;5.90;4.07;;;;;;;;;;6186350;23;20336;-61
2023/03/15 10:11:47;;;;;;;6.03;4.03;;;;;;;;;;6213472;23;20009;-84
2023/03/15 10:14:22;;;;;;;5.97;4.03;;;;;;;;;;6214643;23;20001;-62
2023/03/15 10:16:50;;;;;;;5.25;3.97;;;;;;;;;;6213351;23;20009;-70
2023/03/15 10:19:43;;;;;;;5.22;3.72;;;;;;;;;;6212592;23;20725;-68
2023/03/15 10:22:12;;;;;;;8.18;4.25;;;;;;;;;;6182546;23;20021;-61
2023/03/15 10:24:47;;;;;;;6.32;4.45;;;;;;;;;;6182838;23;20029;-67
2023/03/15 10:27:17;;;;;;;5.13;3.80;;;;;;;;;;6182622;23;20004;-85
2023/03/15 10:29:44;;;;;;;5.15;3.40;;;;;;;;;;6182934;23;20039;-84
2023/03/15 10:32:16;;;;;;;7.45;4.05;;;;;;;;;;6183180;23;20005;-76
2023/03/15 10:34:43;;;;;;;7.00;4.60;;;;;;;;;;6181216;23;20084;-62
2023/03/15 10:37:09;;;;;;;6.32;4.82;;;;;;;;;;6181296;23;19997;-61
2023/03/15 10:39:35;;;;;;;7.47;4.78;;;;;;;;;;6181919;23;20083;-77
2023/03/15 10:42:02;;;;;;;7.57;5.38;;;;;;;;;;6181970;23;20001;-73
2023/03/15 10:44:28;;;;;;;11.75;5.65;;;;;;;;;;6181282;23;20005;-80
2023/03/15 10:47:08;;;;;;;7.95;5.07;;;;;;;;;;6180964;23;20640;-74
2023/03/15 10:49:38;;;;;;;8.00;5.43;;;;;;;;;;6181753;23;20013;-62
2023/03/15 10:52:04;;;;;;;8.35;5.20;;;;;;;;;;6181560;23;20005;-64
2023/03/15 10:54:34;;;;;;;6.63;4.82;;;;;;;;;;6183075;23;20362;-67
2023/03/15 10:57:00;;;;;;;7.53;5.60;;;;;;;;;;6181171;23;20008;-79
2023/03/15 10:59:28;;;;;;;10.25;6.47;;;;;;;;;;6181208;23;20123;-62
2023/03/15 11:02:12;;;;;;;8.30;5.40;;;;;;;;;;6181610;23;20008;-72
2023/03/15 11:04:48;;;;;;;12.77;5.25;;;;;;;;;;6155086;23;20004;-78
2023/03/15 11:07:14;;;;;;;6.70;5.03;;;;;;;;;;6182287;23;20422;-71
2023/03/15 11:09:41;;;;;;;6.60;5.53;;;;;;;;;;6182412;23;20004;-75
2023/03/15 11:12:15;;;;;;;8.43;5.93;;;;;;;;;;6182751;23;20005;-61
2023/03/15 11:14:45;;;;;;;8.18;6.03;;;;;;;;;;6182309;23;20322;-67
2023/03/15 11:17:19;;;;;;;8.07;6.43;;;;;;;;;;6182540;23;20430;-71
2023/03/15 11:19:51;;;;;;;11.70;5.93;;;;;;;;;;6187526;23;20000;-84
2023/03/15 11:22:17;;;;;;;10.40;6.50;;;;;;;;;;6212790;23;20340;-64
2023/03/15 11:24:43;;;;;;;8.02;5.90;;;;;;;;;;6212675;23;20076;-61
2023/03/15 11:27:16;;;;;;;8.68;6.53;;;;;;;;;;6212370;23;20001;-61
2023/03/15 11:30:03;;;;;;;8.38;6.15;;;;;;;;;;6211030;23;20087;-62
2023/03/15 11:32:31;;;;;;;7.18;6.00;;;;;;;;;;6212038;23;20035;-60
2023/03/15 11:35:14;;;;;;;7.38;5.88;;;;;;;;;;6211849;23;20039;-68
2023/03/15 11:38:06;;;;;;;8.93;6.53;;;;;;;;;;6212074;23;20005;-61
2023/03/15 11:40:58;;;;;;;10.45;7.13;;;;;;;;;;6211786;23;20009;-60
2023/03/15 11:43:34;;;;;;;7.97;7.00;;;;;;;;;;6211299;23;20004;-64
2023/03/15 11:46:01;;;;;;;8.77;6.55;;;;;;;;;;6214197;23;20407;-65
2023/03/15 11:48:47;;;;;;;9.55;7.15;;;;;;;;;;6215016;23;20043;-61
2023/03/15 11:51:14;;;;;;;9.70;7.13;;;;;;;;;;6213968;23;20023;-72
2023/03/15 11:53:44;;;;;;;8.55;6.68;;;;;;;;;;6214149;23;20000;-76
2023/03/15 11:56:19;;;;;;;8.18;6.88;;;;;;;;;;6214076;23;20333;-62
2023/03/15 11:59:02;;;;;;;7.80;4.97;;;;;;;;;;6214461;23;20083;-64
2023/03/15 12:01:28;;;;;;;8.27;6.80;;;;;;;;;;6214517;23;20013;-73
2023/03/15 12:04:13;;;;;;;9.73;7.25;;;;;;;;;;6214374;23;20047;-72
2023/03/15 12:06:40;;;;;;;12.20;7.45;;;;;;;;;;6214459;23;20457;-65
2023/03/15 12:09:24;;;;;;;11.98;7.95;;;;;;;;;;6213888;23;20004;-66
2023/03/15 12:11:50;;;;;;;10.95;7.88;;;;;;;;;;6214198;23;20008;-65
2023/03/15 12:14:22;;;;;;;11.30;7.72;;;;;;;;;;6213805;23;20004;-61
2023/03/15 12:16:48;;;;;;;9.77;7.40;;;;;;;;;;6214092;23;20008;-60
2023/03/15 12:19:18;;;;;;;14.35;7.47;;;;;;;;;;6214375;23;20226;-61
2023/03/15 12:21:56;;;;;;;10.15;7.53;;;;;;;;;;6213447;23;20100;-68
2023/03/15 12:24:26;;;;;;;12.23;7.60;;;;;;;;;;6213843;23;20008;-60
2023/03/15 12:27:12;;;;;;;9.27;6.78;;;;;;;;;;6187003;23;20424;-62
2023/03/15 12:29:38;;;;;;;12.02;6.80;;;;;;;;;;6212673;23;20012;-71
2023/03/15 12:32:08;;;;;;;9.85;7.00;;;;;;;;;;6213865;23;20032;-62
2023/03/15 12:34:46;;;;;;;11.30;7.95;;;;;;;;;;6213341;23;20508;-62
2023/03/15 12:37:13;;;;;;;14.13;8.25;;;;;;;;;;6213703;23;20008;-62
2023/03/15 12:39:39;;;;;;;11.38;6.72;;;;;;;;;;6213843;23;20007;-61
2023/03/15 12:42:06;;;;;;;14.25;8.98;;;;;;;;;;6213768;23;20000;-63
2023/03/15 12:44:32;;;;;;;18.05;9.85;;;;;;;;;;6214029;23;20397;-62
2023/03/15 12:47:16;;;;;;;14.95;8.80;;;;;;;;;;6213468;23;20024;-64
2023/03/15 12:49:43;;;;;;;12.52;8.60;;;;;;;;;;6213556;23;20040;-63
2023/03/15 12:52:15;;;;;;;12.23;8.10;;;;;;;;;;6213514;23;20000;-61
2023/03/15 12:54:43;;;;;;;9.38;6.45;;;;;;;;;;6214027;23;20004;-60
2023/03/15 12:57:11;;;;;;;16.30;8.85;;;;;;;;;;6213738;23;20004;-62
2023/03/15 12:59:56;;;;;;;12.07;8.15;;;;;;;;;;6213032;23;20012;-61
2023/03/15 13:02:23;;;;;;;15.88;9.55;;;;;;;;;;6214045;23;20086;-60
2023/03/15 13:04:49;;;;;;;13.35;8.57;;;;;;;;;;6214261;23;20028;-63
2023/03/15 13:07:15;;;;;;;19.23;11.20;;;;;;;;;;6213504;23;20001;-60
2023/03/15 13:09:41;;;;;;;14.77;9.02;;;;;;;;;;6213231;23;20071;-60
2023/03/15 13:12:15;;;;;;;14.20;9.68;;;;;;;;;;6213859;23;20011;-61
2023/03/15 13:14:46;;;;;;;14.93;8.98;;;;;;;;;;6213214;23;19997;-60
2023/03/15 13:17:22;;;;;;;13.80;7.75;;;;;;;;;;6213668;23;20009;-61
2023/03/15 13:19:51;;;;;;;16.08;9.23;;;;;;;;;;6213367;23;20023;-60
2023/03/15 13:22:36;;;;;;;11.32;8.60;;;;;;;;;;6213215;23;20035;-60
2023/03/15 13:25:09;;;;;;;12.98;8.80;;;;;;;;;;6213870;23;20004;-80
2023/03/15 13:27:41;;;;;;;14.88;8.80;;;;;;;;;;6213936;23;20022;-59
2023/03/15 13:30:25;;;;;;;13.90;8.93;;;;;;;;;;6213361;23;20013;-61
2023/03/15 13:33:09;;;;;;;14.38;9.50;;;;;;;;;;6212897;23;20083;-61
2023/03/15 13:35:43;;;;;;;16.75;9.55;;;;;;;;;;6213614;23;20429;-63
2023/03/15 13:38:21;;;;;;;15.20;9.02;;;;;;;;;;6213468;23;20079;-70
2023/03/15 13:40:47;;;;;;;13.68;8.80;;;;;;;;;;6213101;23;20028;-66
2023/03/15 13:43:13;;;;;;;14.15;9.20;;;;;;;;;;6212714;23;20016;-79
2023/03/15 13:45:41;;;;;;;16.05;9.45;;;;;;;;;;6212913;23;20310;-60
2023/03/15 13:48:08;;;;;;;15.15;9.73;;;;;;;;;;6212088;23;20016;-60
2023/03/15 13:50:34;;;;;;;15.32;8.95;;;;;;;;;;6214680;23;20015;-60
2023/03/15 13:53:00;;;;;;;14.95;9.55;;;;;;;;;;6212843;23;20007;-60
2023/03/15 13:55:31;;;;;;;15.38;9.30;;;;;;;;;;6214469;23;20005;-60
2023/03/15 13:57:59;;;;;;;14.52;9.45;;;;;;;;;;6187665;23;20329;-62
2023/03/15 14:00:25;;;;;;;15.18;8.80;;;;;;;;;;6213873;23;20393;-60
2023/03/15 14:03:16;;;;;;;15.38;8.82;;;;;;;;;;6214310;23;20326;-60
2023/03/15 14:05:45;;;;;;;16.45;9.40;;;;;;;;;;6151789;23;20013;-59
2023/03/15 14:08:30;;;;;;;17.27;9.52;;;;;;;;;;6150568;23;20006;-82
2023/03/15 14:11:00;;;;;;;18.15;10.48;;;;;;;;;;6150525;23;20087;-59
2023/03/15 14:13:28;;;;;;;17.08;9.13;;;;;;;;;;6150360;23;20016;-77
2023/03/15 14:16:07;;;;;;;17.88;9.30;;;;;;;;;;6150174;23;20020;-60
2023/03/15 14:18:38;;;;;;;12.52;8.30;;;;;;;;;;6150210;23;20060;-60
2023/03/15 14:21:04;;;;;;;13.18;8.02;;;;;;;;;;6170052;23;20067;-75
2023/03/15 14:23:30;;;;;;;10.98;7.15;;;;;;;;;;6179961;23;20417;-60
2023/03/15 14:26:10;;;;;;;11.63;7.45;;;;;;;;;;6180417;23;20341;-60
2023/03/15 14:28:36;;;;;;;18.95;10.10;;;;;;;;;;6179465;23;20012;-65
2023/03/15 14:31:02;;;;;;;15.88;9.15;;;;;;;;;;6180056;23;20041;-61
2023/03/15 14:33:31;;;;;;;13.45;8.35;;;;;;;;;;6180032;23;20040;-62
2023/03/15 14:35:59;;;;;;;11.10;7.20;;;;;;;;;;6179944;23;20426;-62
2023/03/15 14:38:26;;;;;;;12.20;7.57;;;;;;;;;;6179467;23;20315;-60